Notice: Undefined index: language in /var/www/vam/vam/index.php on line 25
Air Côte d'Ivoire Virtuel

 METAR AND TAF INFORMATION
METAR FOR DTTJ
ADDS - METARS form results

(0457 UTC 22 April 2019)
Data provider http://aviationweather.gov/metar/data/
 
METAR text: DTTJ 220430Z 15017KT 5000 FEW020 SCT026 29/01 Q0999
Conditions at: DTTJ (DJERBA MELLITA , TN) observed 0430 UTC 22 April 2019
Temperature: 29.0°C (84°F)
Dewpoint: 1.0°C (34°F) [RH = 16%]
Pressure (altimeter): 29.50 inches Hg (999.0 mb)
Winds: from the SSE (150 degrees) at 20 MPH (17 knots; 8.7 m/s)
Visibility: 3 miles ( 5 km)
Ceiling: at least 12,000 feet AGL
Clouds: few clouds at 2000 feet AGL
scattered clouds at 2600 feet AGL
Weather: no significant weather observed at this time

METAR text: DTTJ 220400Z 15014KT 5000 FEW020 SCT026 28/06 Q0999
Conditions at: DTTJ (DJERBA MELLITA , TN) observed 0400 UTC 22 April 2019
Temperature: 28.0°C (82°F)
Dewpoint: 6.0°C (43°F) [RH = 25%]
Pressure (altimeter): 29.50 inches Hg (999.0 mb)
Winds: from the SSE (150 degrees) at 16 MPH (14 knots; 7.2 m/s)
Visibility: 3 miles ( 5 km)
Ceiling: at least 12,000 feet AGL
Clouds: few clouds at 2000 feet AGL
scattered clouds at 2600 feet AGL
Weather: no significant weather observed at this time

Forecast for: DTTJ (DJERBA MELLITA , TN)
Text: TAF DTTJ 212300Z 2200/2224 20008KT 2000 SA NSC
Forecast period: 0000 UTC 22 April 2019 to 0000 UTC 23 April 2019
Forecast type: FROM: standard forecast or significant change
Winds: from the SSW (200 degrees) at 9 MPH (8 knots; 4.1 m/s)
Visibility: 1.24 miles (2.00 km)
Ceiling: unknown
Clouds: missing
Weather: SA  (sand)
Text: BECMG 2115/2117 10015KT 6000 NSC
Forecast period: 1500 UTC 21 April 2019 to 0000 UTC 23 April 2019
Forecast type: BECOMING: Conditions expected to become as follows by 1700 UTC 21 April 2019
Winds: from the E (100 degrees) at 17 MPH (15 knots; 7.7 m/s)
Visibility: 4 miles (6 km)
Ceiling: unknown
Clouds: missing
Weather: SA  (sand)
Text: PROB30
Forecast period: 0900 to 1700 UTC 22 April 2019
Forecast type: TEMPORARY: The following changes expected for less than half the time period
Winds: from the SSW (210 degrees) at 34 MPH (30 knots; 15.4 m/s)
gusting to 52 MPH (45 knots; 23.1 m/s)
Visibility: 1.86 miles (2.99 km)
Ceiling: unknown
Clouds: missing
Weather: SA  (sand)

 AIRPORT MAP

 RUNWAY INFORMATION
Runway 09 Runway length 10171 ft Runway width 148 ft
Runway elevation 9 ft Runway displaced threshold 0 ft Runway heading 88
Runway 27 Runway length 10171 ft Runway width 148 ft
Runway elevation 18 ft Runway displaced threshold 0 ft Runway heading 268

 AIRPORT FREQUENCIES
Type APP Name DJERBA APP Frequency 120.3 MHZ
Type TWR Name DJERBA TWR Frequency 118.15 MHZ

 AIRPORT NEAR NAVIGATION AIDS
Type VOR-DME Name Djerba Frequency 112200 KHZ





Site is not affiliated with, endorsed, or sponsored by Air Côte d'Ivoire. Air Côte d'Ivoire logo are registered trademarks of Air Côte d'Ivoire. ©2017 Air Côte d'Ivoire Virtuel. All rights reserved.